createdAt,value
2022-11-05T00:01:01.791Z,9.11
2022-11-05T00:03:47.455Z,9.10
2022-11-05T00:06:33.891Z,9.05
2022-11-05T00:09:20.065Z,8.99
2022-11-05T00:12:06.297Z,8.77
2022-11-05T00:14:52.676Z,8.56
2022-11-05T00:17:20.058Z,8.62
2022-11-05T00:19:47.547Z,8.74
2022-11-05T00:22:33.391Z,8.68
2022-11-05T00:25:19.136Z,8.70
2022-11-05T00:27:53.825Z,8.45
2022-11-05T00:30:25.932Z,8.33
2022-11-05T00:32:54.174Z,8.56
2022-11-05T00:35:22.622Z,8.53
2022-11-05T00:37:50.730Z,8.67
2022-11-05T00:40:18.261Z,8.57
2022-11-05T00:43:04.646Z,8.66
2022-11-05T00:45:32.332Z,8.72
2022-11-05T00:48:18.541Z,8.62
2022-11-05T00:50:46.446Z,8.76
2022-11-05T00:53:14.413Z,8.77
2022-11-05T00:55:44.835Z,8.90
2022-11-05T00:58:14.816Z,8.91
2022-11-05T01:00:45.474Z,8.91
2022-11-05T01:03:15.220Z,8.85
2022-11-05T01:05:46.683Z,8.88
2022-11-05T01:08:16.622Z,8.82
2022-11-05T01:10:46.712Z,8.77
2022-11-05T01:13:18.015Z,8.82
2022-11-05T01:15:46.631Z,8.81
2022-11-05T01:18:14.421Z,8.85
2022-11-05T01:20:42.148Z,9.01
2022-11-05T01:23:13.585Z,9.02
2022-11-05T01:25:52.080Z,8.92
2022-11-05T01:29:33.021Z,8.85
2022-11-05T01:32:45.723Z,8.75
2022-11-05T01:35:23.934Z,8.55
2022-11-05T01:38:06.545Z,8.62
2022-11-05T01:40:45.287Z,8.60
2022-11-05T01:48:17.598Z,8.45
2022-11-05T01:51:07.050Z,8.47
2022-11-05T01:54:53.277Z,8.79
2022-11-05T01:57:32.487Z,8.56
2022-11-05T02:00:08.130Z,8.62
2022-11-05T02:03:28.160Z,8.22
2022-11-05T02:07:03.685Z,8.29
2022-11-05T02:14:38.954Z,8.17
2022-11-05T02:18:22.722Z,8.37
2022-11-05T02:22:28.905Z,8.39
2022-11-05T02:25:11.958Z,8.25
2022-11-05T02:29:05.845Z,8.52
2022-11-05T02:36:35.668Z,8.65
2022-11-05T02:39:53.950Z,8.64
2022-11-05T02:42:42.352Z,8.83
2022-11-05T02:55:11.095Z,8.89
2022-11-05T02:58:06.582Z,8.84
2022-11-05T03:00:44.132Z,8.98
2022-11-05T03:08:21.756Z,9.33
2022-11-05T03:11:08.510Z,9.31
2022-11-05T03:14:59.257Z,9.49
2022-11-05T03:18:59.459Z,9.33
2022-11-05T03:21:21.003Z,9.36
2022-11-05T03:24:14.345Z,9.28
2022-11-05T03:27:29.875Z,9.23
2022-11-05T03:31:02.350Z,9.06
2022-11-05T03:33:43.249Z,8.43
2022-11-05T03:36:45.982Z,8.70
2022-11-05T03:39:34.046Z,8.77
2022-11-05T03:42:17.758Z,8.93
2022-11-05T03:44:58.484Z,8.94
2022-11-05T03:48:14.547Z,9.20
2022-11-05T03:51:05.297Z,9.33
2022-11-05T03:54:15.837Z,9.08
2022-11-05T03:57:33.191Z,8.87
2022-11-05T04:00:56.325Z,8.78
2022-11-05T04:04:39.733Z,8.89
2022-11-05T04:07:27.715Z,8.88
2022-11-05T04:18:40.706Z,8.79
2022-11-05T04:22:25.948Z,8.63
2022-11-05T04:25:59.275Z,9.04
2022-11-05T04:28:19.708Z,9.10
2022-11-05T04:30:56.520Z,9.16
2022-11-05T04:33:51.247Z,9.00
2022-11-05T04:40:57.499Z,8.78
2022-11-05T04:43:26.495Z,8.69
2022-11-05T04:45:57.735Z,8.78
2022-11-05T04:48:30.379Z,8.55
2022-11-05T04:51:33.021Z,8.47
2022-11-05T04:54:00.849Z,8.61
2022-11-05T04:57:43.892Z,8.74
2022-11-05T05:01:02.912Z,8.52
2022-11-05T05:04:26.465Z,8.44
2022-11-05T05:06:56.502Z,8.21
2022-11-05T05:10:41.282Z,8.28
2022-11-05T05:13:14.650Z,7.78
2022-11-05T05:15:45.352Z,7.87
2022-11-05T05:18:14.718Z,7.86
2022-11-05T05:21:05.762Z,8.03
2022-11-05T05:23:36.945Z,8.13
2022-11-05T05:26:04.639Z,8.00
2022-11-05T05:29:10.624Z,7.68
2022-11-05T05:35:01.794Z,7.14
2022-11-05T05:37:29.425Z,7.16
2022-11-05T05:40:03.669Z,7.29
2022-11-05T05:43:44.384Z,7.57
2022-11-05T05:46:15.110Z,7.82
2022-11-05T05:48:51.307Z,7.85
2022-11-05T05:51:21.348Z,7.72
2022-11-05T05:53:55.784Z,7.72
2022-11-05T05:56:23.428Z,7.84
2022-11-05T05:59:57.689Z,8.11
2022-11-05T06:02:51.614Z,8.08
2022-11-05T06:05:23.090Z,7.94
2022-11-05T06:07:57.728Z,7.72
2022-11-05T06:15:25.793Z,7.59
2022-11-05T06:17:49.660Z,7.51
2022-11-05T06:20:19.665Z,7.51
2022-11-05T06:22:56.952Z,7.47
2022-11-05T06:25:25.605Z,7.33
2022-11-05T06:28:21.547Z,7.45
2022-11-05T06:30:52.183Z,7.58
2022-11-05T06:33:51.217Z,7.64
2022-11-05T06:36:20.074Z,7.44
2022-11-05T06:38:48.523Z,7.59
2022-11-05T06:41:18.901Z,7.50
2022-11-05T06:43:46.589Z,7.64
2022-11-05T06:46:17.943Z,7.97
2022-11-05T06:49:05.508Z,8.24
2022-11-05T06:52:06.463Z,8.16
2022-11-05T07:02:41.245Z,8.44
2022-11-05T07:17:19.958Z,8.94
2022-11-05T07:20:36.753Z,9.03
2022-11-05T07:23:34.215Z,9.18
2022-11-05T07:29:49.079Z,9.56
2022-11-05T07:32:27.929Z,9.65
2022-11-05T07:35:55.507Z,10.13
2022-11-05T07:38:46.242Z,10.68
2022-11-05T07:41:13.908Z,11.00
2022-11-05T07:43:48.322Z,11.17
2022-11-05T07:46:55.792Z,11.38
2022-11-05T07:49:24.015Z,11.36
2022-11-05T07:51:58.260Z,11.94
2022-11-05T07:54:31.394Z,13.24
2022-11-05T07:56:59.152Z,14.80
2022-11-05T07:59:39.224Z,15.96
2022-11-05T08:07:27.982Z,19.23
2022-11-05T08:10:06.397Z,19.37
2022-11-05T08:13:12.207Z,20.58
2022-11-05T08:16:16.650Z,21.23
2022-11-05T08:19:13.817Z,21.58
2022-11-05T08:22:07.922Z,21.27
2022-11-05T08:24:49.910Z,22.39
2022-11-05T08:27:20.381Z,22.96
2022-11-05T08:29:48.114Z,22.23
2022-11-05T08:32:17.937Z,20.77
2022-11-05T08:38:42.144Z,20.36
2022-11-05T08:41:13.305Z,20.69
2022-11-05T08:45:10.133Z,20.09
2022-11-05T08:48:18.171Z,23.04
2022-11-05T08:51:09.297Z,21.34
2022-11-05T08:53:57.141Z,22.87
2022-11-05T08:56:24.766Z,21.56
2022-11-05T08:58:54.026Z,21.01
2022-11-05T09:04:56.163Z,23.43
2022-11-05T09:11:18.396Z,22.17
2022-11-05T09:15:43.445Z,23.66
2022-11-05T09:18:56.690Z,23.86
2022-11-05T09:21:55.427Z,23.18
2022-11-05T09:24:42.975Z,21.91
2022-11-05T09:28:43.115Z,22.78
2022-11-05T09:31:24.892Z,22.33
2022-11-05T09:35:14.476Z,19.23
2022-11-05T09:38:22.748Z,20.11
2022-11-05T09:41:20.844Z,21.96
2022-11-05T09:43:55.509Z,21.45
2022-11-05T09:46:28.458Z,21.37
2022-11-05T09:49:06.258Z,22.78
2022-11-05T09:51:42.806Z,23.35
2022-11-05T09:54:14.894Z,21.68
2022-11-05T09:56:42.596Z,22.59
2022-11-05T09:59:18.971Z,22.51
2022-11-05T10:02:02.387Z,22.64
2022-11-05T10:04:34.058Z,21.27
2022-11-05T10:07:04.499Z,20.40
2022-11-05T10:09:47.716Z,20.74
2022-11-05T10:12:17.720Z,20.21
2022-11-05T10:14:50.239Z,20.46
2022-11-05T10:17:27.502Z,20.43
2022-11-05T10:20:00.738Z,20.21
2022-11-05T10:22:28.508Z,20.61
2022-11-05T10:26:19.319Z,20.76
2022-11-05T10:29:13.990Z,20.65
2022-11-05T10:33:58.478Z,19.82
2022-11-05T10:36:08.018Z,20.20
2022-11-05T10:39:33.455Z,19.98
2022-11-05T10:45:10.026Z,19.75
2022-11-05T10:56:39.745Z,19.80
2022-11-05T10:59:21.533Z,19.55
2022-11-05T11:02:00.316Z,19.61
2022-11-05T11:04:37.480Z,19.64
2022-11-05T11:07:05.769Z,19.25
2022-11-05T11:09:36.575Z,19.55
2022-11-05T11:12:06.113Z,19.58
2022-11-05T11:14:35.226Z,19.86
2022-11-05T11:17:28.884Z,19.62
2022-11-05T11:20:18.006Z,19.89
2022-11-05T11:22:59.674Z,19.68
2022-11-05T11:25:35.982Z,19.76
2022-11-05T11:28:05.794Z,19.91
2022-11-05T11:30:35.180Z,19.67
2022-11-05T11:33:09.206Z,19.77
2022-11-05T11:35:38.938Z,19.73
2022-11-05T11:38:07.402Z,19.93
2022-11-05T11:40:37.997Z,19.98
2022-11-05T11:43:16.399Z,19.79
2022-11-05T11:45:48.268Z,19.64
2022-11-05T11:48:21.609Z,19.56
2022-11-05T11:50:53.439Z,19.56
2022-11-05T11:53:21.020Z,19.59
2022-11-05T11:56:05.569Z,19.55
2022-11-05T11:58:47.220Z,19.29
2022-11-05T12:01:48.054Z,19.09
2022-11-05T12:05:05.722Z,19.58
2022-11-05T12:07:48.863Z,19.45
2022-11-05T12:10:41.217Z,19.52
2022-11-05T12:13:20.909Z,19.51
2022-11-05T12:16:25.613Z,19.62
2022-11-05T12:19:44.175Z,19.68
2022-11-05T12:22:29.774Z,19.70
2022-11-05T12:25:08.272Z,19.66
2022-11-05T12:27:44.671Z,19.67
2022-11-05T12:30:16.312Z,19.39
2022-11-05T12:33:02.214Z,19.23
2022-11-05T12:35:46.985Z,19.33
2022-11-05T12:38:31.922Z,19.01
2022-11-05T12:41:18.322Z,19.26
2022-11-05T12:43:51.616Z,19.07
2022-11-05T12:46:28.044Z,18.92
2022-11-05T12:49:30.947Z,19.24
2022-11-05T12:52:07.497Z,19.27
2022-11-05T12:54:59.249Z,19.19
2022-11-05T12:57:42.380Z,19.40
2022-11-05T13:00:28.053Z,19.15
2022-11-05T13:03:17.358Z,19.18
2022-11-05T13:06:06.273Z,19.19
2022-11-05T13:08:52.660Z,19.24
2022-11-05T13:11:23.938Z,19.17
2022-11-05T13:14:06.525Z,19.28
2022-11-05T13:16:47.826Z,19.33
2022-11-05T13:19:30.111Z,19.23
2022-11-05T13:22:38.107Z,19.06
2022-11-05T13:25:11.951Z,18.99
2022-11-05T13:28:23.789Z,19.26
2022-11-05T13:30:55.966Z,18.95
2022-11-05T13:33:32.393Z,19.12
2022-11-05T13:36:28.563Z,19.23
2022-11-05T13:39:35.231Z,19.30
2022-11-05T13:42:02.518Z,19.30
2022-11-05T13:44:46.087Z,19.00
2022-11-05T13:47:52.414Z,19.14
2022-11-05T13:50:25.818Z,19.25
2022-11-05T13:53:26.860Z,19.28
2022-11-05T13:55:57.814Z,19.28
2022-11-05T13:58:37.269Z,19.16
2022-11-05T14:01:13.923Z,19.02
2022-11-05T14:03:48.419Z,19.11
2022-11-05T14:06:31.110Z,18.86
2022-11-05T14:09:07.597Z,18.86
2022-11-05T14:11:56.276Z,18.70
2022-11-05T14:14:33.875Z,18.89
2022-11-05T14:17:22.062Z,18.89
2022-11-05T14:24:04.051Z,19.00
2022-11-05T14:27:49.532Z,18.91
2022-11-05T14:30:52.683Z,18.86
2022-11-05T14:33:37.738Z,18.64
2022-11-05T14:36:49.527Z,18.57
2022-11-05T14:40:17.629Z,18.50
2022-11-05T14:43:40.525Z,18.37
2022-11-05T14:46:59.321Z,18.06
2022-11-05T14:49:38.502Z,18.12
2022-11-05T14:58:28.310Z,18.03
2022-11-05T15:01:52.728Z,17.71
2022-11-05T15:08:37.574Z,17.68
2022-11-05T15:12:25.254Z,17.60
2022-11-05T15:16:24.681Z,17.36
2022-11-05T15:23:10.118Z,16.95
2022-11-05T15:33:57.675Z,16.51
2022-11-05T15:42:15.643Z,16.24
2022-11-05T15:45:56.603Z,15.97
2022-11-05T15:49:13.099Z,15.78
2022-11-05T16:04:24.030Z,15.39
2022-11-05T16:08:01.919Z,15.44
2022-11-05T16:19:16.997Z,14.65
2022-11-05T16:22:20.597Z,14.43
2022-11-05T16:29:02.887Z,14.56
2022-11-05T16:32:53.328Z,14.63
2022-11-05T16:41:16.381Z,14.47
2022-11-05T16:45:43.576Z,14.03
2022-11-05T16:49:53.546Z,13.93
2022-11-05T16:52:05.931Z,13.89
2022-11-05T16:55:56.242Z,13.70
2022-11-05T16:58:29.723Z,13.31
2022-11-05T17:01:07.406Z,13.07
2022-11-05T17:03:36.247Z,12.95
2022-11-05T17:06:04.024Z,13.03
2022-11-05T17:08:31.499Z,13.02
2022-11-05T17:10:59.092Z,13.04
2022-11-05T17:13:26.487Z,12.97
2022-11-05T17:15:54.043Z,13.10
2022-11-05T17:18:21.956Z,13.16
2022-11-05T17:20:55.285Z,13.11
2022-11-05T17:23:26.787Z,13.11
2022-11-05T17:25:59.969Z,13.12
2022-11-05T17:28:29.135Z,13.15
2022-11-05T17:31:00.106Z,13.18
2022-11-05T17:33:28.408Z,13.17
2022-11-05T17:35:56.204Z,13.19
2022-11-05T17:38:25.902Z,13.02
2022-11-05T17:40:54.101Z,13.01
2022-11-05T17:43:21.766Z,12.87
2022-11-05T17:45:52.117Z,12.89
2022-11-05T17:48:20.792Z,12.64
2022-11-05T17:50:50.152Z,12.72
2022-11-05T17:53:19.024Z,12.65
2022-11-05T17:55:47.593Z,12.47
2022-11-05T17:58:15.315Z,12.52
2022-11-05T18:00:47.901Z,12.40
2022-11-05T18:03:15.799Z,12.35
2022-11-05T18:05:43.582Z,12.29
2022-11-05T18:08:12.515Z,12.38
2022-11-05T18:10:40.711Z,12.37
2022-11-05T18:13:08.397Z,12.23
2022-11-05T18:15:40.851Z,12.17
2022-11-05T18:18:08.974Z,12.16
2022-11-05T18:20:36.592Z,12.23
2022-11-05T18:23:04.576Z,12.11
2022-11-05T18:25:32.014Z,12.26
2022-11-05T18:27:59.413Z,12.23
2022-11-05T18:30:26.877Z,12.24
2022-11-05T18:32:54.354Z,12.17
2022-11-05T18:35:21.830Z,12.10
2022-11-05T18:37:49.288Z,12.10
2022-11-05T18:40:16.697Z,12.17
2022-11-05T18:42:44.161Z,12.18
2022-11-05T18:45:11.893Z,12.13
2022-11-05T18:47:39.434Z,12.15
2022-11-05T18:50:09.313Z,12.07
2022-11-05T18:52:37.001Z,12.04
2022-11-05T18:55:04.878Z,11.87
2022-11-05T18:57:34.055Z,11.79
2022-11-05T19:00:01.964Z,11.76
2022-11-05T19:02:29.580Z,11.71
2022-11-05T19:07:44.542Z,11.65
2022-11-05T19:10:11.978Z,11.54
2022-11-05T19:12:39.479Z,11.46
2022-11-05T19:15:09.733Z,11.49
2022-11-05T19:17:43.024Z,11.40
2022-11-05T19:20:11.144Z,11.34
2022-11-05T19:22:38.759Z,11.17
2022-11-05T19:25:06.844Z,11.23
2022-11-05T19:27:36.119Z,11.17
2022-11-05T19:30:04.996Z,11.16
2022-11-05T19:32:32.576Z,11.17
2022-11-05T19:35:00.125Z,11.19
2022-11-05T19:37:27.559Z,11.35
2022-11-05T19:39:55.013Z,11.29
2022-11-05T19:42:22.453Z,11.32
2022-11-05T19:44:50.031Z,11.29
2022-11-05T19:47:17.611Z,11.22
2022-11-05T19:49:45.084Z,11.12
2022-11-05T19:52:12.579Z,11.02
2022-11-05T19:54:40.122Z,10.78
2022-11-05T19:57:07.639Z,10.74
2022-11-05T19:59:35.108Z,10.55
2022-11-05T20:02:02.624Z,10.56
2022-11-05T20:04:30.157Z,10.56
2022-11-05T20:06:57.941Z,10.64
2022-11-05T20:09:25.409Z,10.45
2022-11-05T20:11:54.646Z,10.44
2022-11-05T20:14:23.651Z,10.47
2022-11-05T20:16:51.304Z,10.36
2022-11-05T20:19:20.798Z,10.59
2022-11-05T20:21:48.467Z,10.13
2022-11-05T20:24:23.564Z,9.91
2022-11-05T20:26:53.852Z,9.77
2022-11-05T20:29:21.350Z,9.99
2022-11-05T20:31:49.550Z,10.02
2022-11-05T20:34:17.021Z,10.07
2022-11-05T20:36:44.402Z,9.87
2022-11-05T20:39:12.177Z,9.76
2022-11-05T20:41:39.824Z,9.65
2022-11-05T20:44:07.295Z,9.54
2022-11-05T20:46:34.719Z,9.25
2022-11-05T20:49:02.112Z,9.21
2022-11-05T20:51:29.752Z,9.30
2022-11-05T20:53:59.452Z,9.31
2022-11-05T20:56:29.913Z,9.03
2022-11-05T20:58:59.072Z,9.17
2022-11-05T21:01:28.630Z,9.23
2022-11-05T21:03:56.807Z,9.42
2022-11-05T21:06:24.203Z,9.48
2022-11-05T21:08:52.366Z,9.43
2022-11-05T21:11:20.600Z,9.46
2022-11-05T21:13:48.679Z,9.51
2022-11-05T21:16:18.584Z,9.45
2022-11-05T21:18:47.016Z,9.28
2022-11-05T21:21:17.196Z,9.13
2022-11-05T21:23:45.047Z,9.10
2022-11-05T21:26:13.980Z,9.00
2022-11-05T21:28:41.840Z,8.95
2022-11-05T21:31:09.866Z,9.13
2022-11-05T21:33:37.685Z,9.11
2022-11-05T21:36:10.268Z,9.17
2022-11-05T21:38:38.388Z,9.20
2022-11-05T21:41:07.728Z,9.21
2022-11-05T21:43:35.814Z,9.26
2022-11-05T21:46:04.886Z,9.32
2022-11-05T21:48:32.885Z,9.25
2022-11-05T21:51:18.569Z,9.20
2022-11-05T21:54:04.922Z,9.16
2022-11-05T21:56:51.383Z,9.37
2022-11-05T21:59:40.029Z,9.36
2022-11-05T22:02:09.517Z,9.25
2022-11-05T22:04:39.787Z,9.29
2022-11-05T22:07:09.658Z,9.15
2022-11-05T22:09:37.371Z,9.04
2022-11-05T22:12:05.703Z,8.89
2022-11-05T22:14:34.026Z,8.89
2022-11-05T22:17:01.566Z,8.94
2022-11-05T22:19:30.673Z,8.90
2022-11-05T22:21:58.101Z,8.83
2022-11-05T22:24:28.075Z,8.91
2022-11-05T22:26:55.738Z,8.82
2022-11-05T22:29:23.129Z,8.85
2022-11-05T22:31:50.660Z,8.78
2022-11-05T22:34:18.617Z,8.67
2022-11-05T22:36:46.550Z,8.53
2022-11-05T22:39:14.578Z,8.47
2022-11-05T22:41:43.146Z,8.51
